sensor_id;sensor_type;location;lat;lon;timestamp;P1;durP1;ratioP1;P2;durP2;ratioP2
4305;SDS011;2166;49.926;8.608;2023-05-07T00:00:47;6.15;;;1.88;;
4305;SDS011;2166;49.926;8.608;2023-05-07T00:03:17;2.35;;;1.98;;
4305;SDS011;2166;49.926;8.608;2023-05-07T00:05:49;3.58;;;2.40;;
4305;SDS011;2166;49.926;8.608;2023-05-07T00:08:19;3.20;;;2.08;;
4305;SDS011;2166;49.926;8.608;2023-05-07T00:10:50;7.10;;;1.90;;
4305;SDS011;2166;49.926;8.608;2023-05-07T00:13:20;2.25;;;1.90;;
4305;SDS011;2166;49.926;8.608;2023-05-07T00:15:51;5.15;;;1.92;;
4305;SDS011;2166;49.926;8.608;2023-05-07T00:18:21;3.10;;;1.85;;
4305;SDS011;2166;49.926;8.608;2023-05-07T00:20:55;2.80;;;1.60;;
4305;SDS011;2166;49.926;8.608;2023-05-07T00:23:26;2.22;;;1.63;;
4305;SDS011;2166;49.926;8.608;2023-05-07T00:25:57;5.03;;;1.95;;
4305;SDS011;2166;49.926;8.608;2023-05-07T00:28:31;2.40;;;2.00;;
4305;SDS011;2166;49.926;8.608;2023-05-07T00:31:01;3.33;;;1.83;;
4305;SDS011;2166;49.926;8.608;2023-05-07T00:33:31;5.18;;;2.05;;
4305;SDS011;2166;49.926;8.608;2023-05-07T00:36:05;3.30;;;2.10;;
4305;SDS011;2166;49.926;8.608;2023-05-07T00:38:36;3.42;;;2.50;;
4305;SDS011;2166;49.926;8.608;2023-05-07T00:41:05;3.88;;;2.17;;
4305;SDS011;2166;49.926;8.608;2023-05-07T00:43:35;4.30;;;2.88;;
4305;SDS011;2166;49.926;8.608;2023-05-07T00:46:04;4.20;;;3.08;;
4305;SDS011;2166;49.926;8.608;2023-05-07T00:48:33;2.50;;;2.30;;
4305;SDS011;2166;49.926;8.608;2023-05-07T00:51:03;3.80;;;2.70;;
4305;SDS011;2166;49.926;8.608;2023-05-07T00:53:32;5.88;;;3.53;;
4305;SDS011;2166;49.926;8.608;2023-05-07T00:56:04;4.60;;;2.28;;
4305;SDS011;2166;49.926;8.608;2023-05-07T00:58:35;5.45;;;3.08;;
4305;SDS011;2166;49.926;8.608;2023-05-07T01:01:04;3.95;;;2.28;;
4305;SDS011;2166;49.926;8.608;2023-05-07T01:03:37;3.75;;;2.50;;
4305;SDS011;2166;49.926;8.608;2023-05-07T01:06:06;5.50;;;3.88;;
4305;SDS011;2166;49.926;8.608;2023-05-07T01:08:35;4.60;;;2.70;;
4305;SDS011;2166;49.926;8.608;2023-05-07T01:11:06;4.43;;;2.58;;
4305;SDS011;2166;49.926;8.608;2023-05-07T01:13:37;6.50;;;2.63;;
4305;SDS011;2166;49.926;8.608;2023-05-07T01:16:06;3.40;;;2.78;;
4305;SDS011;2166;49.926;8.608;2023-05-07T01:18:37;9.13;;;4.13;;
4305;SDS011;2166;49.926;8.608;2023-05-07T01:21:06;4.28;;;2.65;;
4305;SDS011;2166;49.926;8.608;2023-05-07T01:23:40;4.20;;;2.33;;
4305;SDS011;2166;49.926;8.608;2023-05-07T01:26:09;7.30;;;2.88;;
4305;SDS011;2166;49.926;8.608;2023-05-07T01:28:38;4.70;;;2.75;;
4305;SDS011;2166;49.926;8.608;2023-05-07T01:31:07;6.20;;;4.05;;
4305;SDS011;2166;49.926;8.608;2023-05-07T01:33:37;8.38;;;4.10;;
4305;SDS011;2166;49.926;8.608;2023-05-07T01:36:08;4.68;;;3.45;;
4305;SDS011;2166;49.926;8.608;2023-05-07T01:38:40;6.78;;;3.30;;
4305;SDS011;2166;49.926;8.608;2023-05-07T01:41:09;3.42;;;3.00;;
4305;SDS011;2166;49.926;8.608;2023-05-07T01:43:40;7.65;;;3.13;;
4305;SDS011;2166;49.926;8.608;2023-05-07T01:46:09;6.80;;;3.80;;
4305;SDS011;2166;49.926;8.608;2023-05-07T01:48:38;5.95;;;3.00;;
4305;SDS011;2166;49.926;8.608;2023-05-07T01:51:07;5.38;;;3.60;;
4305;SDS011;2166;49.926;8.608;2023-05-07T01:53:37;5.60;;;3.10;;
4305;SDS011;2166;49.926;8.608;2023-05-07T01:56:08;4.32;;;2.38;;
4305;SDS011;2166;49.926;8.608;2023-05-07T01:58:39;4.63;;;3.38;;
4305;SDS011;2166;49.926;8.608;2023-05-07T02:01:08;4.75;;;3.30;;
4305;SDS011;2166;49.926;8.608;2023-05-07T02:03:36;4.28;;;3.03;;
4305;SDS011;2166;49.926;8.608;2023-05-07T02:06:12;3.45;;;2.65;;
4305;SDS011;2166;49.926;8.608;2023-05-07T02:08:40;3.95;;;2.88;;
4305;SDS011;2166;49.926;8.608;2023-05-07T02:11:12;4.03;;;2.58;;
4305;SDS011;2166;49.926;8.608;2023-05-07T02:13:41;4.75;;;2.95;;
4305;SDS011;2166;49.926;8.608;2023-05-07T02:16:09;5.13;;;2.90;;
4305;SDS011;2166;49.926;8.608;2023-05-07T02:18:41;5.32;;;3.70;;
4305;SDS011;2166;49.926;8.608;2023-05-07T02:21:09;4.32;;;3.53;;
4305;SDS011;2166;49.926;8.608;2023-05-07T02:23:37;4.15;;;3.08;;
4305;SDS011;2166;49.926;8.608;2023-05-07T02:26:06;6.15;;;2.38;;
4305;SDS011;2166;49.926;8.608;2023-05-07T02:28:37;4.85;;;2.67;;
4305;SDS011;2166;49.926;8.608;2023-05-07T02:31:05;4.03;;;2.80;;
4305;SDS011;2166;49.926;8.608;2023-05-07T02:33:34;3.90;;;2.85;;
4305;SDS011;2166;49.926;8.608;2023-05-07T02:36:06;3.17;;;2.70;;
4305;SDS011;2166;49.926;8.608;2023-05-07T02:38:41;8.68;;;3.25;;
4305;SDS011;2166;49.926;8.608;2023-05-07T02:41:09;4.10;;;2.70;;
4305;SDS011;2166;49.926;8.608;2023-05-07T02:43:40;5.53;;;2.80;;
4305;SDS011;2166;49.926;8.608;2023-05-07T02:46:09;4.53;;;2.75;;
4305;SDS011;2166;49.926;8.608;2023-05-07T02:48:42;4.25;;;2.83;;
4305;SDS011;2166;49.926;8.608;2023-05-07T02:51:10;3.85;;;2.97;;
4305;SDS011;2166;49.926;8.608;2023-05-07T02:53:41;4.55;;;3.25;;
4305;SDS011;2166;49.926;8.608;2023-05-07T02:56:10;4.35;;;3.00;;
4305;SDS011;2166;49.926;8.608;2023-05-07T02:58:40;3.78;;;2.50;;
4305;SDS011;2166;49.926;8.608;2023-05-07T03:01:10;3.95;;;3.28;;
4305;SDS011;2166;49.926;8.608;2023-05-07T03:03:59;5.75;;;3.50;;
4305;SDS011;2166;49.926;8.608;2023-05-07T03:06:30;6.78;;;3.30;;
4305;SDS011;2166;49.926;8.608;2023-05-07T03:08:58;3.78;;;3.10;;
4305;SDS011;2166;49.926;8.608;2023-05-07T03:11:29;6.45;;;3.10;;
4305;SDS011;2166;49.926;8.608;2023-05-07T03:13:59;7.28;;;3.25;;
4305;SDS011;2166;49.926;8.608;2023-05-07T03:16:28;5.60;;;3.13;;
4305;SDS011;2166;49.926;8.608;2023-05-07T03:18:57;7.95;;;3.28;;
4305;SDS011;2166;49.926;8.608;2023-05-07T03:21:26;6.82;;;3.20;;
4305;SDS011;2166;49.926;8.608;2023-05-07T03:23:54;6.88;;;3.00;;
4305;SDS011;2166;49.926;8.608;2023-05-07T03:26:23;6.18;;;3.08;;
4305;SDS011;2166;49.926;8.608;2023-05-07T03:28:52;9.23;;;2.92;;
4305;SDS011;2166;49.926;8.608;2023-05-07T03:31:24;4.50;;;2.97;;
4305;SDS011;2166;49.926;8.608;2023-05-07T03:33:53;6.15;;;2.67;;
4305;SDS011;2166;49.926;8.608;2023-05-07T03:36:23;6.35;;;2.90;;
4305;SDS011;2166;49.926;8.608;2023-05-07T03:38:54;3.53;;;2.95;;
4305;SDS011;2166;49.926;8.608;2023-05-07T03:41:25;6.50;;;2.88;;
4305;SDS011;2166;49.926;8.608;2023-05-07T03:43:54;3.65;;;2.55;;
4305;SDS011;2166;49.926;8.608;2023-05-07T03:46:24;5.13;;;2.50;;
4305;SDS011;2166;49.926;8.608;2023-05-07T03:48:55;8.18;;;2.95;;
4305;SDS011;2166;49.926;8.608;2023-05-07T03:51:24;4.22;;;2.80;;
4305;SDS011;2166;49.926;8.608;2023-05-07T03:53:53;4.18;;;2.80;;
4305;SDS011;2166;49.926;8.608;2023-05-07T03:56:24;9.32;;;3.88;;
4305;SDS011;2166;49.926;8.608;2023-05-07T03:58:56;4.13;;;2.88;;
4305;SDS011;2166;49.926;8.608;2023-05-07T04:01:28;6.40;;;2.78;;
4305;SDS011;2166;49.926;8.608;2023-05-07T04:03:57;3.78;;;2.47;;
4305;SDS011;2166;49.926;8.608;2023-05-07T04:06:27;5.40;;;2.63;;
4305;SDS011;2166;49.926;8.608;2023-05-07T04:08:58;3.03;;;2.42;;
4305;SDS011;2166;49.926;8.608;2023-05-07T04:11:27;4.90;;;2.95;;
4305;SDS011;2166;49.926;8.608;2023-05-07T04:13:56;4.40;;;2.55;;
4305;SDS011;2166;49.926;8.608;2023-05-07T04:16:24;3.80;;;2.60;;
4305;SDS011;2166;49.926;8.608;2023-05-07T04:18:54;5.35;;;2.47;;
4305;SDS011;2166;49.926;8.608;2023-05-07T04:21:23;3.60;;;2.35;;
4305;SDS011;2166;49.926;8.608;2023-05-07T04:23:54;3.58;;;2.58;;
4305;SDS011;2166;49.926;8.608;2023-05-07T04:26:23;4.82;;;2.25;;
4305;SDS011;2166;49.926;8.608;2023-05-07T04:28:52;3.13;;;2.33;;
4305;SDS011;2166;49.926;8.608;2023-05-07T04:31:26;3.10;;;2.10;;
4305;SDS011;2166;49.926;8.608;2023-05-07T04:33:57;4.60;;;2.50;;
4305;SDS011;2166;49.926;8.608;2023-05-07T04:36:28;9.13;;;2.83;;
4305;SDS011;2166;49.926;8.608;2023-05-07T04:39:02;4.30;;;2.78;;
4305;SDS011;2166;49.926;8.608;2023-05-07T04:41:30;6.05;;;1.98;;
4305;SDS011;2166;49.926;8.608;2023-05-07T04:44:00;3.97;;;2.45;;
4305;SDS011;2166;49.926;8.608;2023-05-07T04:46:31;3.30;;;2.55;;
4305;SDS011;2166;49.926;8.608;2023-05-07T04:49:01;4.13;;;2.47;;
4305;SDS011;2166;49.926;8.608;2023-05-07T04:51:30;4.75;;;2.50;;
4305;SDS011;2166;49.926;8.608;2023-05-07T04:53:59;4.68;;;2.65;;
4305;SDS011;2166;49.926;8.608;2023-05-07T04:56:29;3.08;;;2.05;;
4305;SDS011;2166;49.926;8.608;2023-05-07T04:59:01;2.88;;;2.15;;
4305;SDS011;2166;49.926;8.608;2023-05-07T05:01:31;3.05;;;2.20;;
4305;SDS011;2166;49.926;8.608;2023-05-07T05:04:00;3.88;;;1.90;;
4305;SDS011;2166;49.926;8.608;2023-05-07T05:06:30;2.85;;;2.33;;
4305;SDS011;2166;49.926;8.608;2023-05-07T05:09:02;4.82;;;2.10;;
4305;SDS011;2166;49.926;8.608;2023-05-07T05:11:32;3.92;;;2.65;;
4305;SDS011;2166;49.926;8.608;2023-05-07T05:14:01;3.30;;;1.88;;
4305;SDS011;2166;49.926;8.608;2023-05-07T05:16:29;3.35;;;2.35;;
4305;SDS011;2166;49.926;8.608;2023-05-07T05:18:59;2.20;;;1.92;;
4305;SDS011;2166;49.926;8.608;2023-05-07T05:21:30;11.32;;;2.28;;
4305;SDS011;2166;49.926;8.608;2023-05-07T05:24:05;8.13;;;2.00;;
4305;SDS011;2166;49.926;8.608;2023-05-07T05:26:35;1.67;;;1.58;;
4305;SDS011;2166;49.926;8.608;2023-05-07T05:29:04;6.47;;;2.10;;
4305;SDS011;2166;49.926;8.608;2023-05-07T05:31:37;2.58;;;2.35;;
4305;SDS011;2166;49.926;8.608;2023-05-07T05:34:06;3.42;;;2.03;;
4305;SDS011;2166;49.926;8.608;2023-05-07T05:36:37;5.13;;;2.30;;
4305;SDS011;2166;49.926;8.608;2023-05-07T05:39:06;2.53;;;2.28;;
4305;SDS011;2166;49.926;8.608;2023-05-07T05:41:34;4.68;;;2.30;;
4305;SDS011;2166;49.926;8.608;2023-05-07T05:44:03;3.10;;;1.83;;
4305;SDS011;2166;49.926;8.608;2023-05-07T05:46:32;3.67;;;2.00;;
4305;SDS011;2166;49.926;8.608;2023-05-07T05:49:02;3.80;;;1.90;;
4305;SDS011;2166;49.926;8.608;2023-05-07T05:51:31;2.90;;;1.95;;
4305;SDS011;2166;49.926;8.608;2023-05-07T05:54:02;2.92;;;1.85;;
4305;SDS011;2166;49.926;8.608;2023-05-07T05:56:32;3.42;;;2.10;;
4305;SDS011;2166;49.926;8.608;2023-05-07T05:59:01;2.20;;;1.92;;
4305;SDS011;2166;49.926;8.608;2023-05-07T06:01:32;4.10;;;1.70;;
4305;SDS011;2166;49.926;8.608;2023-05-07T06:04:03;3.42;;;1.60;;
4305;SDS011;2166;49.926;8.608;2023-05-07T06:06:33;3.03;;;2.00;;
4305;SDS011;2166;49.926;8.608;2023-05-07T06:09:05;2.47;;;2.05;;
4305;SDS011;2166;49.926;8.608;2023-05-07T06:11:40;3.40;;;1.90;;
4305;SDS011;2166;49.926;8.608;2023-05-07T06:14:10;1.75;;;1.65;;
4305;SDS011;2166;49.926;8.608;2023-05-07T06:16:38;5.55;;;1.90;;
4305;SDS011;2166;49.926;8.608;2023-05-07T06:19:07;2.05;;;1.50;;
4305;SDS011;2166;49.926;8.608;2023-05-07T06:21:38;4.32;;;1.95;;
4305;SDS011;2166;49.926;8.608;2023-05-07T06:24:09;3.92;;;1.98;;
4305;SDS011;2166;49.926;8.608;2023-05-07T06:26:38;2.03;;;1.60;;
4305;SDS011;2166;49.926;8.608;2023-05-07T06:29:07;6.00;;;1.65;;
4305;SDS011;2166;49.926;8.608;2023-05-07T06:31:39;2.92;;;1.75;;
4305;SDS011;2166;49.926;8.608;2023-05-07T06:34:10;1.65;;;1.52;;
4305;SDS011;2166;49.926;8.608;2023-05-07T06:36:41;2.95;;;1.42;;
4305;SDS011;2166;49.926;8.608;2023-05-07T06:39:38;1.92;;;1.60;;
4305;SDS011;2166;49.926;8.608;2023-05-07T06:42:06;2.92;;;1.77;;
4305;SDS011;2166;49.926;8.608;2023-05-07T06:44:39;2.40;;;1.80;;
4305;SDS011;2166;49.926;8.608;2023-05-07T06:47:11;2.90;;;1.52;;
4305;SDS011;2166;49.926;8.608;2023-05-07T06:49:44;3.88;;;1.80;;
4305;SDS011;2166;49.926;8.608;2023-05-07T06:52:15;2.47;;;1.73;;
4305;SDS011;2166;49.926;8.608;2023-05-07T06:54:47;1.63;;;1.50;;
4305;SDS011;2166;49.926;8.608;2023-05-07T06:57:18;2.90;;;1.60;;
4305;SDS011;2166;49.926;8.608;2023-05-07T06:59:47;3.13;;;1.60;;
4305;SDS011;2166;49.926;8.608;2023-05-07T07:02:17;2.08;;;1.88;;
4305;SDS011;2166;49.926;8.608;2023-05-07T07:04:48;3.78;;;1.85;;
4305;SDS011;2166;49.926;8.608;2023-05-07T07:07:18;4.05;;;1.80;;
4305;SDS011;2166;49.926;8.608;2023-05-07T07:09:50;3.47;;;2.10;;
4305;SDS011;2166;49.926;8.608;2023-05-07T07:12:19;3.90;;;1.98;;
4305;SDS011;2166;49.926;8.608;2023-05-07T07:14:49;1.95;;;1.65;;
4305;SDS011;2166;49.926;8.608;2023-05-07T07:17:18;4.03;;;1.90;;
4305;SDS011;2166;49.926;8.608;2023-05-07T07:19:46;1.92;;;1.70;;
4305;SDS011;2166;49.926;8.608;2023-05-07T07:22:16;3.03;;;2.10;;
4305;SDS011;2166;49.926;8.608;2023-05-07T07:24:45;2.92;;;1.70;;
4305;SDS011;2166;49.926;8.608;2023-05-07T07:27:18;2.38;;;2.03;;
4305;SDS011;2166;49.926;8.608;2023-05-07T07:29:47;4.30;;;1.92;;
4305;SDS011;2166;49.926;8.608;2023-05-07T07:32:16;5.80;;;1.75;;
4305;SDS011;2166;49.926;8.608;2023-05-07T07:34:45;4.43;;;1.98;;
4305;SDS011;2166;49.926;8.608;2023-05-07T07:37:13;2.03;;;1.83;;
4305;SDS011;2166;49.926;8.608;2023-05-07T07:39:43;2.78;;;1.90;;
4305;SDS011;2166;49.926;8.608;2023-05-07T07:42:12;3.17;;;2.00;;
4305;SDS011;2166;49.926;8.608;2023-05-07T07:44:43;5.63;;;2.10;;
4305;SDS011;2166;49.926;8.608;2023-05-07T07:47:14;2.70;;;1.80;;
4305;SDS011;2166;49.926;8.608;2023-05-07T07:49:43;3.35;;;1.90;;
4305;SDS011;2166;49.926;8.608;2023-05-07T07:52:12;1.98;;;1.77;;
4305;SDS011;2166;49.926;8.608;2023-05-07T07:54:44;1.98;;;1.70;;
4305;SDS011;2166;49.926;8.608;2023-05-07T07:57:12;4.82;;;1.90;;
4305;SDS011;2166;49.926;8.608;2023-05-07T07:59:42;2.47;;;1.98;;
4305;SDS011;2166;49.926;8.608;2023-05-07T08:02:14;4.88;;;2.08;;
4305;SDS011;2166;49.926;8.608;2023-05-07T08:04:43;2.05;;;1.90;;
4305;SDS011;2166;49.926;8.608;2023-05-07T08:07:13;2.20;;;2.00;;
4305;SDS011;2166;49.926;8.608;2023-05-07T08:09:46;2.88;;;2.08;;
4305;SDS011;2166;49.926;8.608;2023-05-07T08:12:17;3.90;;;2.17;;
4305;SDS011;2166;49.926;8.608;2023-05-07T08:14:49;3.25;;;2.20;;
4305;SDS011;2166;49.926;8.608;2023-05-07T08:17:17;3.47;;;2.30;;
4305;SDS011;2166;49.926;8.608;2023-05-07T08:19:49;2.70;;;2.00;;
4305;SDS011;2166;49.926;8.608;2023-05-07T08:22:18;3.92;;;2.40;;
4305;SDS011;2166;49.926;8.608;2023-05-07T08:24:49;4.13;;;2.60;;
4305;SDS011;2166;49.926;8.608;2023-05-07T08:27:19;3.75;;;2.15;;
4305;SDS011;2166;49.926;8.608;2023-05-07T08:29:50;2.50;;;2.28;;
4305;SDS011;2166;49.926;8.608;2023-05-07T08:32:20;2.53;;;2.20;;
4305;SDS011;2166;49.926;8.608;2023-05-07T08:34:49;2.75;;;2.08;;
4305;SDS011;2166;49.926;8.608;2023-05-07T08:37:19;2.30;;;2.10;;
4305;SDS011;2166;49.926;8.608;2023-05-07T08:39:48;3.03;;;2.35;;
4305;SDS011;2166;49.926;8.608;2023-05-07T08:42:20;2.97;;;2.40;;
4305;SDS011;2166;49.926;8.608;2023-05-07T08:44:54;3.97;;;2.28;;
4305;SDS011;2166;49.926;8.608;2023-05-07T08:51:26;4.95;;;2.70;;
4305;SDS011;2166;49.926;8.608;2023-05-07T08:53:57;2.22;;;2.03;;
4305;SDS011;2166;49.926;8.608;2023-05-07T08:56:31;3.70;;;2.47;;
4305;SDS011;2166;49.926;8.608;2023-05-07T08:59:00;4.70;;;2.40;;
4305;SDS011;2166;49.926;8.608;2023-05-07T09:01:32;4.97;;;2.60;;
4305;SDS011;2166;49.926;8.608;2023-05-07T09:04:03;3.60;;;2.20;;
4305;SDS011;2166;49.926;8.608;2023-05-07T09:06:34;5.38;;;2.25;;
4305;SDS011;2166;49.926;8.608;2023-05-07T09:09:04;3.85;;;2.20;;
4305;SDS011;2166;49.926;8.608;2023-05-07T09:11:33;2.67;;;2.47;;
4305;SDS011;2166;49.926;8.608;2023-05-07T09:14:01;2.40;;;2.20;;
4305;SDS011;2166;49.926;8.608;2023-05-07T09:19:07;4.32;;;1.90;;
4305;SDS011;2166;49.926;8.608;2023-05-07T09:21:43;3.75;;;2.10;;
4305;SDS011;2166;49.926;8.608;2023-05-07T09:24:15;3.75;;;2.08;;
4305;SDS011;2166;49.926;8.608;2023-05-07T09:26:44;3.50;;;2.30;;
4305;SDS011;2166;49.926;8.608;2023-05-07T09:29:15;3.17;;;2.38;;
4305;SDS011;2166;49.926;8.608;2023-05-07T09:31:46;2.53;;;2.33;;
4305;SDS011;2166;49.926;8.608;2023-05-07T09:34:17;2.97;;;2.38;;
4305;SDS011;2166;49.926;8.608;2023-05-07T09:36:47;4.05;;;2.15;;
4305;SDS011;2166;49.926;8.608;2023-05-07T09:39:16;3.15;;;2.47;;
4305;SDS011;2166;49.926;8.608;2023-05-07T09:41:46;3.83;;;2.60;;
4305;SDS011;2166;49.926;8.608;2023-05-07T09:47:02;9.15;;;2.58;;
4305;SDS011;2166;49.926;8.608;2023-05-07T09:49:39;3.33;;;2.08;;
4305;SDS011;2166;49.926;8.608;2023-05-07T09:52:12;3.67;;;2.10;;
4305;SDS011;2166;49.926;8.608;2023-05-07T09:54:48;5.07;;;2.20;;
4305;SDS011;2166;49.926;8.608;2023-05-07T09:57:22;4.07;;;2.42;;
4305;SDS011;2166;49.926;8.608;2023-05-07T09:59:57;3.42;;;2.10;;
4305;SDS011;2166;49.926;8.608;2023-05-07T10:02:35;4.47;;;2.20;;
4305;SDS011;2166;49.926;8.608;2023-05-07T10:05:13;2.30;;;2.00;;
4305;SDS011;2166;49.926;8.608;2023-05-07T10:07:43;2.80;;;1.98;;
4305;SDS011;2166;49.926;8.608;2023-05-07T10:10:13;1.95;;;1.70;;
4305;SDS011;2166;49.926;8.608;2023-05-07T10:12:44;1.95;;;1.75;;
4305;SDS011;2166;49.926;8.608;2023-05-07T10:15:21;4.70;;;2.10;;
4305;SDS011;2166;49.926;8.608;2023-05-07T10:17:55;4.72;;;1.95;;
4305;SDS011;2166;49.926;8.608;2023-05-07T10:20:26;2.92;;;2.03;;
4305;SDS011;2166;49.926;8.608;2023-05-07T10:22:56;3.83;;;2.00;;
4305;SDS011;2166;49.926;8.608;2023-05-07T10:25:36;3.42;;;1.75;;
4305;SDS011;2166;49.926;8.608;2023-05-07T10:28:21;1.70;;;1.60;;
4305;SDS011;2166;49.926;8.608;2023-05-07T10:30:57;3.38;;;1.90;;
4305;SDS011;2166;49.926;8.608;2023-05-07T10:33:44;3.78;;;1.67;;
4305;SDS011;2166;49.926;8.608;2023-05-07T10:36:16;3.33;;;1.88;;
4305;SDS011;2166;49.926;8.608;2023-05-07T10:41:20;3.58;;;2.10;;
4305;SDS011;2166;49.926;8.608;2023-05-07T10:43:50;4.07;;;1.50;;
4305;SDS011;2166;49.926;8.608;2023-05-07T10:46:24;2.08;;;1.55;;
4305;SDS011;2166;49.926;8.608;2023-05-07T10:49:15;3.63;;;1.45;;
4305;SDS011;2166;49.926;8.608;2023-05-07T10:52:12;4.63;;;1.40;;
4305;SDS011;2166;49.926;8.608;2023-05-07T10:55:18;1.73;;;1.60;;
4305;SDS011;2166;49.926;8.608;2023-05-07T11:01:11;2.72;;;1.60;;
4305;SDS011;2166;49.926;8.608;2023-05-07T11:10:09;5.05;;;1.33;;
4305;SDS011;2166;49.926;8.608;2023-05-07T11:12:57;3.40;;;1.10;;
4305;SDS011;2166;49.926;8.608;2023-05-07T11:15:37;2.47;;;1.50;;
4305;SDS011;2166;49.926;8.608;2023-05-07T11:18:20;3.28;;;1.30;;
4305;SDS011;2166;49.926;8.608;2023-05-07T11:20:52;2.65;;;1.02;;
4305;SDS011;2166;49.926;8.608;2023-05-07T11:23:57;2.05;;;1.10;;
4305;SDS011;2166;49.926;8.608;2023-05-07T11:26:47;4.95;;;1.20;;
4305;SDS011;2166;49.926;8.608;2023-05-07T11:29:19;2.05;;;1.17;;
4305;SDS011;2166;49.926;8.608;2023-05-07T11:31:55;3.40;;;1.10;;
4305;SDS011;2166;49.926;8.608;2023-05-07T11:34:29;1.48;;;1.08;;
4305;SDS011;2166;49.926;8.608;2023-05-07T11:36:58;2.45;;;1.30;;
4305;SDS011;2166;49.926;8.608;2023-05-07T11:39:46;3.45;;;1.30;;
4305;SDS011;2166;49.926;8.608;2023-05-07T11:45:06;2.58;;;1.40;;
4305;SDS011;2166;49.926;8.608;2023-05-07T11:47:36;1.67;;;1.15;;
4305;SDS011;2166;49.926;8.608;2023-05-07T11:50:08;3.17;;;1.38;;
4305;SDS011;2166;49.926;8.608;2023-05-07T11:52:38;3.00;;;1.20;;
4305;SDS011;2166;49.926;8.608;2023-05-07T11:55:08;5.68;;;1.30;;
4305;SDS011;2166;49.926;8.608;2023-05-07T11:57:37;2.03;;;1.20;;
4305;SDS011;2166;49.926;8.608;2023-05-07T12:00:06;3.83;;;1.55;;
4305;SDS011;2166;49.926;8.608;2023-05-07T12:02:38;2.15;;;1.25;;
4305;SDS011;2166;49.926;8.608;2023-05-07T12:05:08;1.63;;;1.13;;
4305;SDS011;2166;49.926;8.608;2023-05-07T12:07:37;1.10;;;1.00;;
4305;SDS011;2166;49.926;8.608;2023-05-07T12:10:08;4.50;;;1.20;;
4305;SDS011;2166;49.926;8.608;2023-05-07T12:12:41;1.17;;;1.05;;
4305;SDS011;2166;49.926;8.608;2023-05-07T12:15:15;1.58;;;1.00;;
4305;SDS011;2166;49.926;8.608;2023-05-07T12:17:44;2.90;;;1.45;;
4305;SDS011;2166;49.926;8.608;2023-05-07T12:20:13;2.72;;;0.80;;
4305;SDS011;2166;49.926;8.608;2023-05-07T12:22:41;1.70;;;0.90;;
4305;SDS011;2166;49.926;8.608;2023-05-07T12:25:11;1.70;;;1.15;;
4305;SDS011;2166;49.926;8.608;2023-05-07T12:27:45;0.88;;;0.80;;
4305;SDS011;2166;49.926;8.608;2023-05-07T12:30:19;3.33;;;1.52;;
4305;SDS011;2166;49.926;8.608;2023-05-07T12:32:51;2.33;;;0.90;;
4305;SDS011;2166;49.926;8.608;2023-05-07T12:35:26;1.83;;;0.93;;
4305;SDS011;2166;49.926;8.608;2023-05-07T12:37:55;3.38;;;0.98;;
4305;SDS011;2166;49.926;8.608;2023-05-07T12:40:36;2.40;;;1.20;;
4305;SDS011;2166;49.926;8.608;2023-05-07T12:43:07;3.95;;;1.20;;
4305;SDS011;2166;49.926;8.608;2023-05-07T12:45:42;3.13;;;0.98;;
4305;SDS011;2166;49.926;8.608;2023-05-07T12:48:14;2.40;;;1.17;;
4305;SDS011;2166;49.926;8.608;2023-05-07T12:50:42;1.95;;;1.50;;
4305;SDS011;2166;49.926;8.608;2023-05-07T12:53:12;2.20;;;1.00;;
4305;SDS011;2166;49.926;8.608;2023-05-07T12:55:43;3.30;;;1.20;;
4305;SDS011;2166;49.926;8.608;2023-05-07T12:58:15;3.05;;;1.02;;
4305;SDS011;2166;49.926;8.608;2023-05-07T13:00:46;2.08;;;1.00;;
4305;SDS011;2166;49.926;8.608;2023-05-07T13:03:20;1.00;;;0.90;;
4305;SDS011;2166;49.926;8.608;2023-05-07T13:05:51;5.13;;;1.00;;
4305;SDS011;2166;49.926;8.608;2023-05-07T13:08:27;1.35;;;0.88;;
4305;SDS011;2166;49.926;8.608;2023-05-07T13:11:24;1.92;;;1.20;;
4305;SDS011;2166;49.926;8.608;2023-05-07T13:13:52;4.03;;;1.17;;
4305;SDS011;2166;49.926;8.608;2023-05-07T13:16:21;2.47;;;0.98;;
4305;SDS011;2166;49.926;8.608;2023-05-07T13:18:50;2.20;;;0.95;;
4305;SDS011;2166;49.926;8.608;2023-05-07T13:21:19;1.25;;;0.75;;
4305;SDS011;2166;49.926;8.608;2023-05-07T13:23:48;1.98;;;1.00;;
4305;SDS011;2166;49.926;8.608;2023-05-07T13:26:16;2.13;;;0.73;;
4305;SDS011;2166;49.926;8.608;2023-05-07T13:28:54;1.05;;;0.95;;
4305;SDS011;2166;49.926;8.608;2023-05-07T13:31:23;2.20;;;0.75;;
4305;SDS011;2166;49.926;8.608;2023-05-07T13:33:53;2.28;;;0.90;;
4305;SDS011;2166;49.926;8.608;2023-05-07T13:36:22;2.85;;;0.70;;
4305;SDS011;2166;49.926;8.608;2023-05-07T13:38:52;2.38;;;0.80;;
4305;SDS011;2166;49.926;8.608;2023-05-07T13:41:21;1.42;;;0.93;;
4305;SDS011;2166;49.926;8.608;2023-05-07T13:43:49;5.30;;;1.08;;
4305;SDS011;2166;49.926;8.608;2023-05-07T13:46:21;2.28;;;0.98;;
4305;SDS011;2166;49.926;8.608;2023-05-07T13:48:50;1.20;;;1.10;;
4305;SDS011;2166;49.926;8.608;2023-05-07T13:51:18;1.52;;;1.13;;
4305;SDS011;2166;49.926;8.608;2023-05-07T13:56:20;3.55;;;1.10;;
4305;SDS011;2166;49.926;8.608;2023-05-07T13:58:49;1.92;;;0.95;;
4305;SDS011;2166;49.926;8.608;2023-05-07T14:01:29;1.55;;;1.00;;
4305;SDS011;2166;49.926;8.608;2023-05-07T14:03:59;2.20;;;0.90;;
4305;SDS011;2166;49.926;8.608;2023-05-07T14:06:36;2.72;;;0.90;;
4305;SDS011;2166;49.926;8.608;2023-05-07T14:09:19;1.23;;;0.80;;
4305;SDS011;2166;49.926;8.608;2023-05-07T14:11:51;1.75;;;0.73;;
4305;SDS011;2166;49.926;8.608;2023-05-07T14:15:04;2.00;;;1.02;;
4305;SDS011;2166;49.926;8.608;2023-05-07T14:17:55;1.95;;;0.70;;
4305;SDS011;2166;49.926;8.608;2023-05-07T14:20:25;1.50;;;0.98;;
4305;SDS011;2166;49.926;8.608;2023-05-07T14:22:54;3.65;;;0.90;;
4305;SDS011;2166;49.926;8.608;2023-05-07T14:25:23;1.08;;;0.60;;
4305;SDS011;2166;49.926;8.608;2023-05-07T14:27:52;1.10;;;0.60;;
4305;SDS011;2166;49.926;8.608;2023-05-07T14:30:24;1.88;;;0.65;;
4305;SDS011;2166;49.926;8.608;2023-05-07T14:32:54;3.45;;;0.90;;
4305;SDS011;2166;49.926;8.608;2023-05-07T14:35:23;1.48;;;0.88;;
4305;SDS011;2166;49.926;8.608;2023-05-07T14:37:51;1.27;;;0.90;;
4305;SDS011;2166;49.926;8.608;2023-05-07T14:40:20;4.25;;;0.88;;
4305;SDS011;2166;49.926;8.608;2023-05-07T14:42:56;1.10;;;0.70;;
4305;SDS011;2166;49.926;8.608;2023-05-07T14:45:24;2.40;;;0.80;;
4305;SDS011;2166;49.926;8.608;2023-05-07T14:47:54;2.08;;;1.08;;
4305;SDS011;2166;49.926;8.608;2023-05-07T14:50:23;0.85;;;0.82;;
4305;SDS011;2166;49.926;8.608;2023-05-07T14:53:16;3.10;;;0.82;;
4305;SDS011;2166;49.926;8.608;2023-05-07T14:55:45;0.98;;;0.90;;
4305;SDS011;2166;49.926;8.608;2023-05-07T14:58:15;1.48;;;0.90;;
4305;SDS011;2166;49.926;8.608;2023-05-07T15:00:43;3.50;;;1.00;;
4305;SDS011;2166;49.926;8.608;2023-05-07T15:03:14;3.13;;;1.30;;
4305;SDS011;2166;49.926;8.608;2023-05-07T15:05:44;2.50;;;1.00;;
4305;SDS011;2166;49.926;8.608;2023-05-07T15:08:12;2.10;;;0.93;;
4305;SDS011;2166;49.926;8.608;2023-05-07T15:10:40;1.95;;;1.00;;
4305;SDS011;2166;49.926;8.608;2023-05-07T15:13:09;1.50;;;0.80;;
4305;SDS011;2166;49.926;8.608;2023-05-07T15:15:41;1.65;;;1.17;;
4305;SDS011;2166;49.926;8.608;2023-05-07T15:18:13;3.85;;;1.05;;
4305;SDS011;2166;49.926;8.608;2023-05-07T15:20:42;3.13;;;1.27;;
4305;SDS011;2166;49.926;8.608;2023-05-07T15:23:12;2.05;;;1.00;;
4305;SDS011;2166;49.926;8.608;2023-05-07T15:25:45;2.42;;;0.90;;
4305;SDS011;2166;49.926;8.608;2023-05-07T15:28:20;1.90;;;1.20;;
4305;SDS011;2166;49.926;8.608;2023-05-07T15:30:49;2.45;;;1.42;;
4305;SDS011;2166;49.926;8.608;2023-05-07T15:33:23;2.53;;;1.45;;
4305;SDS011;2166;49.926;8.608;2023-05-07T15:35:55;1.75;;;1.42;;
4305;SDS011;2166;49.926;8.608;2023-05-07T15:38:26;3.40;;;1.77;;
4305;SDS011;2166;49.926;8.608;2023-05-07T15:40:54;10.20;;;1.75;;
4305;SDS011;2166;49.926;8.608;2023-05-07T15:43:26;5.82;;;1.70;;
4305;SDS011;2166;49.926;8.608;2023-05-07T15:45:55;5.55;;;1.73;;
4305;SDS011;2166;49.926;8.608;2023-05-07T15:48:25;1.75;;;1.17;;
4305;SDS011;2166;49.926;8.608;2023-05-07T15:50:54;3.58;;;1.30;;
4305;SDS011;2166;49.926;8.608;2023-05-07T15:53:22;1.88;;;1.55;;
4305;SDS011;2166;49.926;8.608;2023-05-07T15:55:54;3.05;;;1.50;;
4305;SDS011;2166;49.926;8.608;2023-05-07T15:58:27;3.83;;;1.80;;
4305;SDS011;2166;49.926;8.608;2023-05-07T16:00:58;3.95;;;1.60;;
4305;SDS011;2166;49.926;8.608;2023-05-07T16:03:30;6.28;;;1.90;;
4305;SDS011;2166;49.926;8.608;2023-05-07T16:06:02;4.40;;;2.10;;
4305;SDS011;2166;49.926;8.608;2023-05-07T16:08:31;9.18;;;2.00;;